createdAt,value
2022-11-15T00:04:42.591Z,12.37
2022-11-15T00:10:14.042Z,12.44
2022-11-15T00:15:45.775Z,12.47
2022-11-15T00:21:22.195Z,12.42
2022-11-15T00:26:53.887Z,12.53
2022-11-15T00:32:25.860Z,12.55
2022-11-15T00:37:57.351Z,12.37
2022-11-15T00:43:29.429Z,12.66
2022-11-15T00:49:01.147Z,12.58
2022-11-15T00:54:32.554Z,12.7
2022-11-15T00:54:49.380Z,12.69
2022-11-15T01:00:21.163Z,12.7
2022-11-15T01:05:52.898Z,12.63
2022-11-15T01:11:24.377Z,12.58
2022-11-15T01:16:56.340Z,12.61
2022-11-15T01:22:27.739Z,12.51
2022-11-15T01:28:00.040Z,12.39
2022-11-15T01:33:31.800Z,12.42
2022-11-15T01:39:02.941Z,12.45
2022-11-15T01:44:35.050Z,12.26
2022-11-15T01:50:06.713Z,12.25
2022-11-15T01:55:42.514Z,12.37
2022-11-15T02:01:14.277Z,12.28
2022-11-15T02:06:47.582Z,12.34
2022-11-15T02:12:17.765Z,12.29
2022-11-15T02:17:49.429Z,12.31
2022-11-15T02:23:21.513Z,12.26
2022-11-15T02:28:53.081Z,12.37
2022-11-15T02:34:24.555Z,12.31
2022-11-15T02:39:56.577Z,12.33
2022-11-15T02:45:28.244Z,12.29
2022-11-15T02:50:59.734Z,12.12
2022-11-15T02:56:36.077Z,12.14
2022-11-15T03:02:07.777Z,12.14
2022-11-15T03:07:40.048Z,11.99
2022-11-15T03:13:11.199Z,11.87
2022-11-15T03:18:42.966Z,12.01
2022-11-15T03:24:15.346Z,12.02
2022-11-15T03:29:46.135Z,11.91
2022-11-15T03:35:18.158Z,11.91
2022-11-15T03:40:49.593Z,11.83
2022-11-15T03:46:21.537Z,11.65
2022-11-15T03:51:53.308Z,11.57
2022-11-15T03:57:29.169Z,11.64
2022-11-15T04:03:00.910Z,11.63
2022-11-15T04:08:32.646Z,11.51
2022-11-15T04:14:04.623Z,11.52
2022-11-15T04:19:36.025Z,11.75
2022-11-15T04:25:07.779Z,11.8
2022-11-15T04:30:39.510Z,11.89
2022-11-15T04:36:11.211Z,11.74
2022-11-15T04:41:42.923Z,11.69
2022-11-15T04:47:14.919Z,11.71
2022-11-15T04:52:46.394Z,11.75
2022-11-15T04:58:24.744Z,11.69
2022-11-15T05:03:56.505Z,11.66
2022-11-15T05:09:28.206Z,11.67
2022-11-15T05:14:59.681Z,11.74
2022-11-15T05:20:31.890Z,11.67
2022-11-15T05:26:06.511Z,11.81
2022-11-15T05:31:35.083Z,11.93
2022-11-15T05:37:06.616Z,11.76
2022-11-15T05:42:38.624Z,11.71
2022-11-15T05:48:10.280Z,11.66
2022-11-15T05:53:42.467Z,11.71
2022-11-15T05:59:20.743Z,11.71
2022-11-15T06:04:51.640Z,11.68
2022-11-15T06:10:23.352Z,11.87
2022-11-15T06:15:55.340Z,11.84
2022-11-15T06:21:27.072Z,11.83
2022-11-15T06:26:58.886Z,11.8
2022-11-15T06:32:30.174Z,11.81
2022-11-15T06:38:01.960Z,11.87
2022-11-15T06:43:34.189Z,11.77
2022-11-15T06:49:09.344Z,11.82
2022-11-15T06:54:38.115Z,11.71
2022-11-15T07:00:13.323Z,11.49
2022-11-15T07:05:45.008Z,11.71
2022-11-15T07:11:17.011Z,11.9
2022-11-15T07:16:48.467Z,11.77
2022-11-15T07:22:20.186Z,11.65
2022-11-15T07:27:51.940Z,11.64
2022-11-15T07:33:24.047Z,11.69
2022-11-15T07:38:55.675Z,11.81
2022-11-15T07:44:27.071Z,11.84
2022-11-15T07:49:58.835Z,12.1
2022-11-15T07:55:30.796Z,12.03
2022-11-15T08:01:09.216Z,12.37
2022-11-15T08:06:40.415Z,12.48
2022-11-15T08:12:12.155Z,12.54
2022-11-15T08:17:43.884Z,12.43
2022-11-15T08:23:16.098Z,12.48
2022-11-15T08:28:47.326Z,12.6
2022-11-15T08:34:19.000Z,12.73
2022-11-15T08:39:51.418Z,13.03
2022-11-15T08:45:22.434Z,13.43
2022-11-15T08:50:54.519Z,13.7
2022-11-15T08:56:25.854Z,13.79
2022-11-15T09:02:04.479Z,14.07
2022-11-15T09:07:35.965Z,14.07
2022-11-15T09:13:07.526Z,13.96
2022-11-15T09:18:39.187Z,14.41
2022-11-15T09:24:10.892Z,14.42
2022-11-15T09:29:44.151Z,14.36
2022-11-15T09:35:14.395Z,14.59
2022-11-15T09:40:46.066Z,14.81
2022-11-15T09:46:18.085Z,14.98
2022-11-15T09:51:49.737Z,14.7
2022-11-15T09:57:21.218Z,14.68
2022-11-15T10:02:57.397Z,14.73
2022-11-15T10:08:29.518Z,14.96
2022-11-15T10:14:01.155Z,15.0
2022-11-15T10:19:32.583Z,14.98
2022-11-15T10:25:04.511Z,15.17
2022-11-15T10:30:36.789Z,15.18
2022-11-15T10:36:07.723Z,15.31
2022-11-15T10:41:40.452Z,15.5
2022-11-15T10:47:11.444Z,15.29
2022-11-15T10:52:42.885Z,15.32
2022-11-15T10:58:14.643Z,15.49
2022-11-15T11:03:53.116Z,15.33
2022-11-15T11:09:24.688Z,15.5
2022-11-15T11:14:56.183Z,15.49
2022-11-15T11:20:27.860Z,15.32
2022-11-15T11:26:00.169Z,15.5
2022-11-15T11:31:31.343Z,15.55
2022-11-15T11:37:03.024Z,15.53
2022-11-15T11:42:34.982Z,15.39
2022-11-15T11:48:06.755Z,15.55
2022-11-15T11:53:38.312Z,15.39
2022-11-15T11:59:09.942Z,15.36
2022-11-15T12:04:46.104Z,15.72
2022-11-15T12:10:18.968Z,15.76
2022-11-15T12:15:49.575Z,15.87
2022-11-15T12:21:25.460Z,15.85
2022-11-15T12:26:53.100Z,15.82
2022-11-15T12:32:24.710Z,15.74
2022-11-15T12:37:56.458Z,15.64
2022-11-15T12:43:28.165Z,15.69
2022-11-15T12:49:00.018Z,15.77
2022-11-15T12:54:31.784Z,15.67
2022-11-15T13:00:03.546Z,15.67
2022-11-15T13:05:39.650Z,15.63
2022-11-15T13:11:11.318Z,15.71
2022-11-15T13:16:43.041Z,15.71
2022-11-15T13:22:14.778Z,15.59
2022-11-15T13:27:46.456Z,15.59
2022-11-15T13:33:18.211Z,15.54
2022-11-15T13:38:49.770Z,15.61
2022-11-15T13:44:21.533Z,15.51
2022-11-15T13:49:53.386Z,15.55
2022-11-15T13:55:24.996Z,15.54
2022-11-15T14:00:56.919Z,15.46
2022-11-15T14:06:34.942Z,15.6
2022-11-15T14:12:06.646Z,15.43
2022-11-15T14:17:38.255Z,15.43
2022-11-15T14:23:10.069Z,15.43
2022-11-15T14:28:41.763Z,15.5
2022-11-15T14:34:13.596Z,15.51
2022-11-15T14:39:45.147Z,15.43
2022-11-15T14:45:16.863Z,15.32
2022-11-15T14:50:48.611Z,15.15
2022-11-15T14:56:20.337Z,15.16
2022-11-15T15:01:52.075Z,15.04
2022-11-15T15:07:30.407Z,15.15
2022-11-15T15:13:02.060Z,15.16
2022-11-15T15:18:34.120Z,15.08
2022-11-15T15:24:05.319Z,14.98
2022-11-15T15:29:37.241Z,14.74
2022-11-15T15:35:08.843Z,14.76
2022-11-15T15:40:41.501Z,14.83
2022-11-15T15:46:12.210Z,14.92
2022-11-15T15:51:43.967Z,14.82
2022-11-15T15:57:15.666Z,14.78
2022-11-15T16:02:47.387Z,14.87
2022-11-15T16:08:23.760Z,14.78
2022-11-15T16:13:55.896Z,14.89
2022-11-15T16:19:26.922Z,14.85
2022-11-15T16:24:58.758Z,14.77
2022-11-15T16:30:30.858Z,14.62
2022-11-15T16:36:02.124Z,14.76
2022-11-15T16:41:33.862Z,14.83
2022-11-15T16:47:05.651Z,14.8
2022-11-15T16:52:37.582Z,14.8
2022-11-15T16:58:09.027Z,14.74
2022-11-15T17:03:40.779Z,14.65
2022-11-15T17:09:16.903Z,14.7
2022-11-15T17:14:48.811Z,14.71
2022-11-15T17:20:20.647Z,14.64
2022-11-15T17:25:52.309Z,14.63
2022-11-15T17:31:24.051Z,14.74
2022-11-15T17:36:55.796Z,14.72
2022-11-15T17:42:27.246Z,14.92
2022-11-15T17:47:59.175Z,14.92
2022-11-15T17:53:30.675Z,14.91
2022-11-15T17:59:02.456Z,15.01
2022-11-15T18:04:34.137Z,14.95
2022-11-15T18:10:10.511Z,14.9
2022-11-15T18:15:42.004Z,14.73
2022-11-15T18:21:13.697Z,14.7
2022-11-15T18:26:45.735Z,14.61
2022-11-15T18:32:17.516Z,14.53
2022-11-15T18:37:49.089Z,14.68
2022-11-15T18:43:20.790Z,14.61
2022-11-15T18:48:52.427Z,14.88
2022-11-15T18:54:28.244Z,14.69
2022-11-15T18:59:56.012Z,14.71
2022-11-15T19:05:27.708Z,14.64
2022-11-15T19:11:05.739Z,14.41
2022-11-15T19:16:37.475Z,14.39
2022-11-15T19:22:09.138Z,14.52
2022-11-15T19:27:40.929Z,14.26
2022-11-15T19:33:12.862Z,14.03
2022-11-15T19:38:44.379Z,14.06
2022-11-15T19:44:16.363Z,14.05
2022-11-15T19:49:47.976Z,14.03
2022-11-15T19:55:19.525Z,14.06
2022-11-15T20:00:51.447Z,13.84
2022-11-15T20:06:22.989Z,13.92
2022-11-15T20:12:03.263Z,13.69
2022-11-15T20:17:34.775Z,13.79
2022-11-15T20:23:06.579Z,13.72
2022-11-15T20:28:38.377Z,13.67
2022-11-15T20:34:09.974Z,13.99
2022-11-15T20:39:42.563Z,13.91
2022-11-15T20:45:14.252Z,14.03
2022-11-15T20:50:46.026Z,14.1
2022-11-15T20:56:17.647Z,14.15
2022-11-15T21:01:49.717Z,14.14
2022-11-15T21:07:21.360Z,14.13
2022-11-15T21:12:57.475Z,14.09
2022-11-15T21:18:29.008Z,14.08
2022-11-15T21:24:00.847Z,14.05
2022-11-15T21:29:32.503Z,13.77
2022-11-15T21:35:04.173Z,13.94
2022-11-15T21:40:36.082Z,13.92
2022-11-15T21:46:08.936Z,13.76
2022-11-15T21:51:40.419Z,13.91
2022-11-15T21:57:12.131Z,13.95
2022-11-15T22:02:44.018Z,13.93
2022-11-15T22:08:15.742Z,13.35
2022-11-15T22:13:51.669Z,13.62
2022-11-15T22:19:23.699Z,13.76
2022-11-15T22:24:55.275Z,13.81
2022-11-15T22:30:27.346Z,13.82
2022-11-15T22:35:58.875Z,13.84
2022-11-15T22:41:30.635Z,13.82
2022-11-15T22:47:02.140Z,13.68
2022-11-15T22:52:34.048Z,13.65
2022-11-15T22:58:05.555Z,13.51
2022-11-15T23:03:37.346Z,13.6
2022-11-15T23:09:09.764Z,13.6
2022-11-15T23:14:45.376Z,13.59
2022-11-15T23:25:48.779Z,13.47
2022-11-15T23:31:20.562Z,13.47
2022-11-15T23:36:52.047Z,13.44
2022-11-15T23:42:23.824Z,13.42
2022-11-15T23:48:00.043Z,13.32
2022-11-15T23:53:27.240Z,13.34
2022-11-15T23:58:59.123Z,13.32
